Time,TemperatureF,DewpointF,PressureIn,WindDirection,WindDirectionDegrees,WindSpeedMPH,WindSpeedGustMPH,Humidity,HourlyPrecipIn,Conditions,Clouds,dailyrainin,SolarRadiationWatts/m^2,SoftwareType,DateUTC
2013-10-04 00:04:00,70.0,38.0,-100.00,ESE,123,3.0,6.0,31,0.00,,,0.00,1.000000,,2013-10-04 07:04:00,
2013-10-04 00:48:00,65.0,36.0,-100.00,North,3,2.0,4.0,34,0.00,,,0.00,1.000000,,2013-10-04 07:48:00,
2013-10-04 00:56:00,65.0,36.0,-100.00,North,3,2.0,4.0,34,0.00,,,0.00,1.000000,,2013-10-04 07:56:00,
2013-10-04 01:04:00,65.0,36.0,-100.00,North,3,2.0,4.0,34,0.00,,,0.00,1.000000,,2013-10-04 08:04:00,
2013-10-04 01:48:00,64.0,37.0,-100.00,NNW,348,3.0,6.0,36,0.00,,,0.00,1.000000,,2013-10-04 08:48:00,
2013-10-04 01:56:00,64.0,37.0,-100.00,NNW,348,3.0,6.0,36,0.00,,,0.00,1.000000,,2013-10-04 08:56:00,
2013-10-04 02:04:00,64.0,37.0,-100.00,NNW,348,3.0,6.0,36,0.00,,,0.00,1.000000,,2013-10-04 09:04:00,
2013-10-04 02:50:00,61.0,36.0,-100.00,NNW,327,3.0,5.0,40,0.00,,,0.00,1.000000,,2013-10-04 09:50:00,
2013-10-04 02:59:00,61.0,36.0,-100.00,NNW,327,3.0,5.0,40,0.00,,,0.00,1.000000,,2013-10-04 09:59:00,
2013-10-04 03:07:00,61.0,36.0,-100.00,NNW,327,3.0,5.0,40,0.00,,,0.00,1.000000,,2013-10-04 10:07:00,
2013-10-04 03:51:00,65.0,37.0,-100.00,NNW,334,4.0,6.0,36,0.00,,,0.00,1.000000,,2013-10-04 10:51:00,
2013-10-04 03:59:00,65.0,37.0,-100.00,NNW,334,4.0,6.0,36,0.00,,,0.00,1.000000,,2013-10-04 10:59:00,
2013-10-04 04:06:00,65.0,37.0,-100.00,NNW,334,4.0,6.0,36,0.00,,,0.00,1.000000,,2013-10-04 11:06:00,
2013-10-04 04:50:00,63.0,38.0,-100.00,NNE,18,4.0,6.0,40,0.00,,,0.00,1.000000,,2013-10-04 11:50:00,
2013-10-04 04:59:00,63.0,38.0,-100.00,NNE,18,4.0,6.0,40,0.00,,,0.00,1.000000,,2013-10-04 11:59:00,
2013-10-04 05:05:00,63.0,38.0,-100.00,NNE,18,4.0,6.0,40,0.00,,,0.00,1.000000,,2013-10-04 12:05:00,
2013-10-04 05:50:00,62.0,37.0,-100.00,NNE,23,2.0,7.0,39,0.00,,,0.00,1.000000,,2013-10-04 12:50:00,
2013-10-04 05:58:00,62.0,37.0,-100.00,NNE,23,2.0,7.0,39,0.00,,,0.00,1.000000,,2013-10-04 12:58:00,
2013-10-04 06:05:00,62.0,37.0,-100.00,NNE,23,2.0,7.0,39,0.00,,,0.00,1.000000,,2013-10-04 13:05:00,
2013-10-04 06:50:00,62.0,37.0,-100.00,NNE,18,3.0,4.0,39,0.00,,,0.00,1.000000,,2013-10-04 13:50:00,
2013-10-04 06:58:00,62.0,37.0,-100.00,NNE,18,3.0,4.0,39,0.00,,,0.00,1.000000,,2013-10-04 13:58:00,
2013-10-04 07:05:00,62.0,37.0,-100.00,NNE,18,3.0,4.0,39,0.00,,,0.00,1.000000,,2013-10-04 14:05:00,
2013-10-04 07:50:00,66.0,40.0,-100.00,NNE,18,4.0,6.0,38,0.00,,,0.00,30.000000,,2013-10-04 14:50:00,
2013-10-04 07:59:00,66.0,40.0,-100.00,NNE,18,4.0,6.0,38,0.00,,,0.00,30.000000,,2013-10-04 14:59:00,
2013-10-04 08:05:00,66.0,40.0,-100.00,NNE,18,4.0,6.0,38,0.00,,,0.00,30.000000,,2013-10-04 15:05:00,
2013-10-04 08:51:00,76.0,41.0,-100.00,NE,51,2.0,5.0,28,0.00,,,0.00,222.000000,,2013-10-04 15:51:00,
2013-10-04 08:59:00,76.0,41.0,-100.00,NE,51,2.0,5.0,28,0.00,,,0.00,222.000000,,2013-10-04 15:59:00,
2013-10-04 09:07:00,76.0,41.0,-100.00,NE,51,2.0,5.0,28,0.00,,,0.00,222.000000,,2013-10-04 16:07:00,
2013-10-04 09:51:00,78.0,47.0,-100.00,SSW,200,4.0,7.0,34,0.00,,,0.00,426.000000,,2013-10-04 16:51:00,
2013-10-04 09:59:00,78.0,47.0,-100.00,SSW,200,4.0,7.0,34,0.00,,,0.00,426.000000,,2013-10-04 16:59:00,
2013-10-04 10:05:00,78.0,47.0,-100.00,SSW,200,4.0,7.0,34,0.00,,,0.00,426.000000,,2013-10-04 17:05:00,
2013-10-04 11:00:00,80.0,44.0,-100.00,West,281,5.0,9.0,28,0.00,,,0.00,606.000000,,2013-10-04 18:00:00,
2013-10-04 11:52:00,82.0,41.0,-100.00,WSW,248,5.0,11.0,23,0.00,,,0.00,742.000000,,2013-10-04 18:52:00,
2013-10-04 12:01:00,82.0,41.0,-100.00,WSW,248,5.0,11.0,23,0.00,,,0.00,742.000000,,2013-10-04 19:01:00,
2013-10-04 12:43:00,85.0,43.0,-100.00,SW,215,7.0,12.0,23,0.00,,,0.00,818.000000,,2013-10-04 19:43:00,
2013-10-04 12:52:00,85.0,43.0,-100.00,SW,215,7.0,12.0,23,0.00,,,0.00,818.000000,,2013-10-04 19:52:00,
2013-10-04 13:02:00,85.0,43.0,-100.00,SW,215,7.0,12.0,23,0.00,,,0.00,818.000000,,2013-10-04 20:02:00,
2013-10-04 13:43:00,85.0,37.0,-100.00,West,269,9.0,16.0,18,0.00,,,0.00,830.000000,,2013-10-04 20:43:00,
2013-10-04 13:53:00,85.0,37.0,-100.00,West,269,9.0,16.0,18,0.00,,,0.00,830.000000,,2013-10-04 20:53:00,
2013-10-04 14:01:00,85.0,37.0,-100.00,West,269,9.0,16.0,18,0.00,,,0.00,830.000000,,2013-10-04 21:01:00,
2013-10-04 14:43:00,86.0,40.0,-100.00,WSW,253,7.0,16.0,20,0.00,,,0.00,765.000000,,2013-10-04 21:43:00,
2013-10-04 14:54:00,86.0,40.0,-100.00,WSW,253,7.0,16.0,20,0.00,,,0.00,765.000000,,2013-10-04 21:54:00,
2013-10-04 15:02:00,86.0,40.0,-100.00,WSW,253,7.0,16.0,20,0.00,,,0.00,765.000000,,2013-10-04 22:02:00,
2013-10-04 15:43:00,86.0,38.0,-100.00,NW,306,9.0,17.0,18,0.00,,,0.00,649.000000,,2013-10-04 22:43:00,
2013-10-04 15:52:00,86.0,38.0,-100.00,NW,306,9.0,17.0,18,0.00,,,0.00,649.000000,,2013-10-04 22:52:00,
2013-10-04 16:03:00,86.0,38.0,-100.00,NW,306,9.0,17.0,18,0.00,,,0.00,649.000000,,2013-10-04 23:03:00,
2013-10-04 16:42:00,85.0,37.0,-100.00,NW,309,6.0,17.0,18,0.00,,,0.00,476.000000,,2013-10-04 23:42:00,
2013-10-04 16:53:00,85.0,37.0,-100.00,NW,309,6.0,17.0,18,0.00,,,0.00,476.000000,,2013-10-04 23:53:00,
2013-10-04 17:02:00,85.0,37.0,-100.00,NW,309,6.0,17.0,18,0.00,,,0.00,476.000000,,2013-10-05 00:02:00,
2013-10-04 17:42:00,84.0,39.0,-100.00,NW,305,8.0,18.0,20,0.00,,,0.00,267.000000,,2013-10-05 00:42:00,
2013-10-04 17:52:00,84.0,39.0,-100.00,NW,305,8.0,18.0,20,0.00,,,0.00,267.000000,,2013-10-05 00:52:00,
2013-10-04 18:02:00,84.0,39.0,-100.00,NW,305,8.0,18.0,20,0.00,,,0.00,267.000000,,2013-10-05 01:02:00,
2013-10-04 18:43:00,79.0,38.0,-100.00,WNW,285,5.0,14.0,23,0.00,,,0.00,64.000000,,2013-10-05 01:43:00,
2013-10-04 18:52:00,79.0,38.0,-100.00,WNW,285,5.0,14.0,23,0.00,,,0.00,64.000000,,2013-10-05 01:52:00,
2013-10-04 19:02:00,79.0,38.0,-100.00,WNW,285,5.0,14.0,23,0.00,,,0.00,64.000000,,2013-10-05 02:02:00,
2013-10-04 19:42:00,78.0,39.0,-100.00,NW,319,9.0,16.0,25,0.00,,,0.00,1.000000,,2013-10-05 02:42:00,
2013-10-04 19:52:00,78.0,39.0,-100.00,NW,319,9.0,16.0,25,0.00,,,0.00,1.000000,,2013-10-05 02:52:00,
2013-10-04 20:02:00,78.0,39.0,-100.00,NW,319,9.0,16.0,25,0.00,,,0.00,1.000000,,2013-10-05 03:02:00,
2013-10-04 20:45:00,76.0,37.0,-100.00,NW,322,4.0,13.0,24,0.00,,,0.00,1.000000,,2013-10-05 03:45:00,
2013-10-04 20:55:00,76.0,37.0,-100.00,NW,322,4.0,13.0,24,0.00,,,0.00,1.000000,,2013-10-05 03:55:00,
2013-10-04 21:04:00,76.0,37.0,-100.00,NW,322,4.0,13.0,24,0.00,,,0.00,1.000000,,2013-10-05 04:04:00,
2013-10-04 21:44:00,72.0,31.0,-100.00,South,189,3.0,11.0,22,0.00,,,0.00,1.000000,,2013-10-05 04:44:00,
2013-10-04 21:53:00,72.0,31.0,-100.00,South,189,3.0,11.0,22,0.00,,,0.00,1.000000,,2013-10-05 04:53:00,
2013-10-04 22:04:00,72.0,31.0,-100.00,South,189,3.0,11.0,22,0.00,,,0.00,1.000000,,2013-10-05 05:04:00,
2013-10-04 22:43:00,66.0,34.0,-100.00,East,91,2.0,6.0,31,0.00,,,0.00,1.000000,,2013-10-05 05:43:00,
2013-10-04 22:52:00,66.0,34.0,-100.00,East,91,2.0,6.0,31,0.00,,,0.00,1.000000,,2013-10-05 05:52:00,
2013-10-04 23:02:00,66.0,34.0,-100.00,East,91,2.0,6.0,31,0.00,,,0.00,1.000000,,2013-10-05 06:02:00,
2013-10-04 23:43:00,65.0,32.0,-100.00,North,359,2.0,7.0,29,0.00,,,0.00,1.000000,,2013-10-05 06:43:00,
2013-10-04 23:52:00,65.0,32.0,-100.00,North,359,2.0,7.0,29,0.00,,,0.00,1.000000,,2013-10-05 06:52:00,